METAR Data
IDs: Format: Raw Decoded Include TAF

Data at: 0917 UTC 20 Sep 2018

PASN 200912Z AUTO 26010KT 2 1/2SM BR OVC002 10/10 A3026 RMK AO2 T01000100 TSNO
PASN 200853Z AUTO 26010KT 1 1/4SM BR OVC002 10/10 A3026 RMK AO2 SLP246 T01000100 401060089 53005 TSNO
PASN 200844Z AUTO 26010KT 1SM BR VV002 10/10 A3026 RMK AO2 T01000100 TSNO
PASN 200835Z AUTO 27009KT 3/4SM BR VV002 10/10 A3025 RMK AO2 T01000100 TSNO
PASN 200818Z AUTO 26012KT 1SM BR VV002 10/10 A3025 RMK AO2 T01000100 TSNO
PASN 200753Z AUTO 25012KT 3/4SM BR VV002 10/10 A3025 RMK AO2 SLP242 T01000100 TSNO
PASN 200721Z AUTO 24013KT 3/4SM BR VV002 10/10 A3024 RMK AO2 T01000100 TSNO
PASN 200709Z AUTO 24015KT 1SM BR VV002 10/10 A3025 RMK AO2 T01000100 TSNO
PASN 200653Z AUTO 24014KT 3/4SM BR VV002 10/10 A3025 RMK AO2 SLP243 T01000100 TSNO
PASN 200644Z AUTO 24014KT 1/2SM FG VV002 10/10 A3025 RMK AO2 T01000100 TSNO
PASN 200624Z AUTO 24014KT 3/4SM BR VV002 10/10 A3024 RMK AO2 T01000100 TSNO
PASN 200553Z AUTO 24014KT 1SM BR VV002 10/10 A3024 RMK AO2 SLP241 60004 T01000100 10106 20100 55000 TSNO
PASN 200520Z AUTO 24014KT 1 1/2SM BR OVC002 10/10 A3024 RMK AO2 T01000100 TSNO
PASN 200511Z AUTO 24013KT 2SM BR OVC002 10/10 A3024 RMK AO2 T01000100 TSNO
PASN 200453Z AUTO 23013KT 3SM BR OVC002 10/10 A3024 RMK AO2 RAE12 SLP239 P0000 T01000100 TSNO
PASN 200439Z AUTO 23015KT 2 1/2SM BR OVC002 10/10 A3024 RMK AO2 RAE12 P0000 T01000100 TSNO
PASN 200400Z AUTO 23015KT 1 3/4SM -RA BR OVC003 10/10 A3024 RMK AO2 P0000 T01000100 TSNO
PASN 200353Z AUTO 23016G22KT 2SM -RA BR OVC003 11/11 A3024 RMK AO2 RAE12B17E27B52 SLP240 P0002 T01060106 TSNO
PASN 200313Z AUTO 23017G22KT 2 1/2SM BR OVC003 11/11 A3024 RMK AO2 RAE12 P0001 T01060106 TSNO
PASN 200253Z AUTO 23016KT 1 1/4SM -RA BR OVC003 10/10 A3024 RMK AO2 RAE07B14 SLP242 P0001 60002 T01000100 58007 TSNO
PASN 200243Z AUTO 23015KT 1 1/2SM -RA BR OVC003 10/10 A3025 RMK AO2 RAE07B14 P0001 T01000100 TSNO
PASN 200212Z AUTO 22017G23KT 2SM BR OVC003 10/10 A3025 RMK AO2 RAE07 P0000 T01000100 TSNO
PASN 200153Z AUTO 23016KT 1 1/4SM -RA BR OVC003 10/10 A3026 RMK AO2 RAB11 SLP245 P0001 T01000100 TSNO
PASN 200148Z AUTO 23017KT 1SM -RA BR OVC003 10/10 A3026 RMK AO2 RAB11 CIG 002V007 P0001 TSNO
PASN 200140Z AUTO 22016KT 1 1/4SM -RA BR OVC005 10/10 A3026 RMK AO2 RAB11 CIG 003V008 P0001 T01000100 TSNO
PASN 200132Z AUTO 22016KT 2SM -RA BR OVC007 10/10 A3026 RMK AO2 RAB11 CIG 004V008 P0000 T01000100 TSNO
PASN 200053Z AUTO 21015KT 6SM BR OVC008 11/11 A3026 RMK AO2 SLP248 T01060106 TSNO
PASN 200037Z AUTO 22014KT 6SM BR OVC008 11/11 A3027 RMK AO2 T01060106 TSNO
PASN 200026Z AUTO 21015KT 6SM BR FEW005 BKN010 OVC014 11/11 A3027 RMK AO2 T01060106 TSNO
PASN 200008Z AUTO 21013KT 3SM BR BKN004 OVC013 10/10 A3028 RMK AO2 T01000100 TSNO
PASN 192353Z AUTO 21015KT 2 1/2SM BR OVC004 10/10 A3028 RMK AO2 RAB08E22B31E42 SLP255 P0000 60000 T01000100 10106 20094 57014 TSNO
PASN 192326Z AUTO 21015KT 2 1/2SM BR OVC004 10/10 A3029 RMK AO2 RAB08E22 CIG 003V008 P0000 T01000100 TSNO
PASN 192253Z AUTO 21015KT 5SM BR BKN006 OVC015 10/10 A3030 RMK AO2 SLP260 T01000100 TSNO
PASN 192153Z AUTO 21013KT 6SM BR OVC008 10/10 A3031 RMK AO2 SLP263 T01000100 TSNO
PASN 192110Z AUTO 21014KT 8SM OVC009 10/09 A3032 RMK AO2 T01000094 TSNO
PASN 192053Z AUTO 21014KT 8SM OVC010 10/09 A3032 RMK AO2 SLP268 60000 T01000094 56009 TSNO
PASN 192003Z AUTO 21015KT 8SM BKN010 BKN029 OVC075 10/09 A3033 RMK AO2 T01000094 TSNO
PASN 191953Z AUTO 20015KT 9SM FEW010 FEW029 OVC075 10/09 A3033 RMK AO2 RAB18E33 SLP271 P0000 T01000094 TSNO
PASN 191928Z AUTO 20017KT 9SM -RA FEW017 SCT022 OVC085 10/09 A3033 RMK AO2 RAB18 P0000 T01000094 TSNO
PASN 191853Z AUTO 21015KT 9SM FEW018 OVC025 09/09 A3034 RMK AO2 SLP275 T00940089 TSNO
PASN 191753Z AUTO 21015KT 9SM FEW012 OVC026 09/09 A3035 RMK AO2 SLP277 T00940089 10100 20089 57003 TSNO
PASN 191726Z AUTO 21013KT 10SM SCT013 BKN021 OVC028 09/09 A3035 RMK AO2 T00940089 TSNO
PASN 191701Z AUTO 21012KT 10SM OVC014 09/09 A3035 RMK AO2 T00940089 TSNO
PASN 191653Z AUTO 20012KT 10SM OVC016 09/08 A3035 RMK AO2 SLP278 T00940083 TSNO
PASN 191553Z AUTO 21012KT 10SM BKN017 OVC021 09/09 A3036 RMK AO2 SLP280 T00940089 TSNO
PASN 191529Z AUTO 22009KT 9SM OVC017 09/09 A3036 RMK AO2 T00940089 TSNO
PASN 191508Z AUTO 21010KT 8SM OVC013 09/09 A3036 RMK AO2 T00940089 TSNO
PASN 191453Z AUTO 22008KT 8SM BKN015 OVC040 09/09 A3036 RMK AO2 SLP280 T00940089 58012 TSNO
PASN 191443Z AUTO 23010KT 8SM BKN017 OVC040 09/09 A3036 RMK AO2 T00940089 TSNO
PASN 191432Z AUTO 22008KT 8SM SCT016 OVC040 09/09 A3036 RMK AO2 T00940089 TSNO
PASN 191353Z AUTO 23010KT 8SM FEW010 OVC017 09/09 A3038 RMK AO2 SLP288 T00940094 TSNO
PASN 191333Z AUTO 23011KT 8SM SCT008 OVC017 09/09 A3039 RMK AO2 T00940094 TSNO
PASN 191253Z AUTO 23013KT 10SM BKN008 OVC014 10/10 A3039 RMK AO2 CIG 006V011 SLP292 T01000100 TSNO
PASN 191153Z AUTO 21012KT 10SM OVC008 09/09 A3039 RMK AO2 CIG 007V012 SLP292 T00940094 10094 20094 55005 TSNO
PASN 191053Z AUTO 20009KT 10SM OVC008 09/09 A3038 RMK AO2 SLP288 T00940094 TSNO
PASN 190953Z AUTO 21009KT 10SM OVC007 09/09 A3039 RMK AO2 SLP293 T00940094 TSNO
PASN 190853Z AUTO 21008KT 10SM OVC008 09/09 A3041 RMK AO2 SLP297 T00940094 401000056 55000 TSNO
PASN 190753Z AUTO 21009KT 10SM OVC008 09/09 A3041 RMK AO2 SLP298 T00940094 TSNO
PASN 190653Z AUTO 21009KT 10SM OVC008 09/09 A3040 RMK AO2 SLP296 T00940089 TSNO
PASN 190614Z AUTO 19007KT 10SM OVC009 09/09 A3041 RMK AO2 T00940089 TSNO
PASN 190553Z AUTO 19008KT 10SM OVC010 09/08 A3041 RMK AO2 SLP297 T00940083 10100 20089 50001 TSNO
PASN 190453Z AUTO 20006KT 10SM OVC010 09/08 A3041 RMK AO2 SLP298 T00890083 TSNO
PASN 190353Z AUTO 21010KT 10SM OVC012 09/08 A3041 RMK AO2 SLP298 T00890078 TSNO
PASN 190253Z AUTO 22010KT 10SM OVC011 09/08 A3041 RMK AO2 SLP296 T00890078 58004 TSNO
PASN 190153Z AUTO 21011KT 10SM OVC013 10/08 A3042 RMK AO2 SLP300 T01000078 TSNO
PASN 190053Z AUTO 21010KT 10SM OVC013 10/08 A3042 RMK AO2 SLP300 T01000078 TSNO
PASN 182353Z AUTO 21010KT 10SM OVC013 10/08 A3042 RMK AO2 SLP300 T01000078 10100 20083 56006 TSNO
PASN 182329Z AUTO 21008KT 10SM OVC015 10/08 A3042 RMK AO2 T01000078 TSNO
PASN 182253Z AUTO 19007KT 10SM OVC014 10/08 A3042 RMK AO2 SLP302 T01000078 TSNO
PASN 182153Z AUTO 22008KT 10SM OVC013 10/08 A3043 RMK AO2 SLP306 T01000078 TSNO
PASN 182123Z AUTO 23008KT 6SM BR OVC011 09/08 A3043 RMK AO2 T00890078 TSNO